Time;durP1;ratioP1;P1;durP2;ratioP2;P2;SDS_P1;SDS_P2;PMS_P1;PMS_P2;Temp;Humidity;BMP_temperature;BMP_pressure;BME280_temperature;BME280_humidity;BME280_pressure;Samples;Min_cycle;Max_cycle;Signal;HPM_P1;HPM_P2
2024/02/15 00:02:29;;;;;;;;;25.40;22.00;;;;;12.91;100.00;99253.78;6220545;28;96679;-53
2024/02/15 00:05:32;;;;;;;;;22.60;20.00;;;;;12.91;100.00;99259.19;6252143;27;96384;-53
2024/02/15 00:08:35;;;;;;;;;25.00;22.00;;;;;12.85;100.00;99266.31;6265207;27;97091;-52
2024/02/15 00:11:39;;;;;;;;;25.80;23.20;;;;;12.81;100.00;99259.72;6259330;27;96266;-53
2024/02/15 00:14:44;;;;;;;;;24.50;23.50;;;;;12.76;100.00;99262.28;6264978;27;96768;-53
2024/02/15 00:17:47;;;;;;;;;26.50;22.00;;;;;12.74;100.00;99277.09;6265925;27;96456;-53
2024/02/15 00:20:51;;;;;;;;;19.40;18.00;;;;;12.72;100.00;99271.06;6265540;27;96370;-53
2024/02/15 00:23:55;;;;;;;;;27.00;26.00;;;;;12.65;100.00;99267.63;6265541;27;96416;-53
2024/02/15 00:26:59;;;;;;;;;36.67;31.00;;;;;12.52;100.00;99257.78;6236075;28;98048;-54
2024/02/15 00:30:18;;;;;;;;;45.00;34.40;;;;;12.39;100.00;99261.47;6256139;27;96289;-53
2024/02/15 00:33:21;;;;;;;;;36.40;32.60;;;;;12.25;100.00;99261.81;6255928;27;96355;-53
2024/02/15 00:36:25;;;;;;;;;43.25;34.00;;;;;11.80;100.00;99207.16;6241285;28;96432;-54
2024/02/15 00:39:28;;;;;;;;;45.00;35.00;;;;;11.80;100.00;99251.22;6240962;28;96358;-54
2024/02/15 00:42:32;;;;;;;;;43.25;36.00;;;;;11.73;100.00;99261.22;6241021;28;96522;-54
2024/02/15 00:45:37;;;;;;;;;42.50;35.00;;;;;11.62;100.00;99259.22;6253053;27;96469;-53
2024/02/15 00:48:40;;;;;;;;;45.00;36.80;;;;;11.58;100.00;99268.81;6266535;27;96371;-54
2024/02/15 00:51:44;;;;;;;;;42.40;35.00;;;;;11.49;100.00;99272.81;6261005;27;96961;-53
2024/02/15 00:54:47;;;;;;;;;47.00;38.00;;;;;11.40;100.00;99274.94;6263806;27;96356;-54
2024/02/15 00:57:50;;;;;;;;;45.00;36.75;;;;;11.29;100.00;99264.84;6238463;28;96275;-58
2024/02/15 01:00:55;;;;;;;;;47.00;39.00;;;;;11.28;100.00;99268.59;6236325;28;96962;-58
2024/02/15 01:03:58;;;;;;;;;43.60;36.00;;;;;11.24;100.00;99270.06;6260919;27;96665;-58
2024/02/15 01:07:01;;;;;;;;;45.00;36.00;;;;;11.20;100.00;99268.84;6260098;27;96680;-58
2024/02/15 01:10:06;;;;;;;;;46.00;36.60;;;;;11.15;100.00;99274.06;6261442;27;96282;-58
2024/02/15 01:13:09;;;;;;;;;41.00;35.00;;;;;11.12;100.00;99277.19;6240493;27;96957;-58
2024/02/15 01:16:15;;;;;;;;;47.00;38.00;;;;;11.11;100.00;99272.84;6246749;27;96323;-58
2024/02/15 01:19:18;;;;;;;;;47.00;38.20;;;;;11.08;100.00;99268.72;6235738;28;96264;-58
2024/02/15 01:22:23;;;;;;;;;46.20;38.00;;;;;11.12;100.00;99274.50;6235769;28;96306;-58
2024/02/15 01:25:27;;;;;;;;;47.25;37.25;;;;;11.14;100.00;99275.91;6249376;27;96286;-58
2024/02/15 01:28:31;;;;;;;;;47.75;38.50;;;;;11.16;100.00;99270.31;6247014;27;96333;-58
2024/02/15 01:31:35;;;;;;;;;47.00;37.60;;;;;11.16;100.00;99268.44;6249543;27;96278;-58
2024/02/15 01:34:38;;;;;;;;;47.80;38.40;;;;;11.18;100.00;99268.25;6239782;28;96417;-58
2024/02/15 01:37:41;;;;;;;;;41.40;35.00;;;;;11.19;100.00;99270.69;6239795;28;96842;-58
2024/02/15 01:40:45;;;;;;;;;42.50;35.00;;;;;11.24;100.00;99267.34;6246851;27;96536;-58
2024/02/15 01:43:49;;;;;;;;;41.75;35.00;;;;;11.27;100.00;99275.03;6250216;27;96513;-58
2024/02/15 01:46:54;;;;;;;;;44.60;35.60;;;;;11.31;100.00;99276.25;6258396;27;96496;-58
2024/02/15 01:49:58;;;;;;;;;43.00;34.00;;;;;11.32;100.00;99277.09;6235470;27;97576;-58
2024/02/15 01:53:03;;;;;;;;;42.40;34.80;;;;;11.20;100.00;99258.88;6236075;28;96526;-58
2024/02/15 01:56:08;;;;;;;;;42.50;33.00;;;;;11.36;100.00;99283.69;6236673;28;97294;-58
2024/02/15 01:59:13;;;;;;;;;41.75;31.75;;;;;11.39;100.00;99288.66;6236138;28;96851;-58
2024/02/15 02:02:21;;;;;;;;;37.40;33.00;;;;;11.33;100.00;99267.94;6265735;22;97474;-57
2024/02/15 02:05:25;;;;;;;;;44.40;35.00;;;;;11.48;100.00;99282.81;6269136;27;96794;-58
2024/02/15 02:08:28;;;;;;;;;38.40;33.40;;;;;11.52;100.00;99284.03;6286928;27;96246;-58
2024/02/15 02:11:31;;;;;;;;;37.20;33.00;;;;;11.48;100.00;99266.59;6285898;27;96941;-58
2024/02/15 02:14:35;;;;;;;;;38.00;32.40;;;;;11.61;100.00;99279.19;6264200;27;97548;-58
2024/02/15 02:17:40;;;;;;;;;42.40;35.00;;;;;11.61;100.00;99268.38;6264770;27;96377;-58
2024/02/15 02:20:43;;;;;;;;;41.40;35.00;;;;;11.67;100.00;99275.59;6263409;27;96452;-58
2024/02/15 02:23:53;;;;;;;;;45.40;36.40;;;;;11.73;100.00;99286.38;6263876;27;96421;-58
2024/02/15 02:26:57;;;;;;;;;39.60;34.00;;;;;11.76;100.00;99287.00;6264290;27;97517;-58
2024/02/15 02:30:01;;;;;;;;;40.40;33.00;;;;;11.79;100.00;99279.28;6263907;27;96415;-58
2024/02/15 02:33:07;;;;;;;;;42.00;34.25;;;;;11.80;100.00;99272.81;6238566;28;96299;-58
2024/02/15 02:36:12;;;;;;;;;40.25;33.25;;;;;11.73;100.00;99270.16;6238768;27;96316;-58
2024/02/15 02:39:15;;;;;;;;;36.00;32.00;;;;;11.66;100.00;99269.38;6238308;28;96418;-57
2024/02/15 02:42:22;;;;;;;;;43.40;33.40;;;;;11.53;100.00;99265.94;6245684;27;96284;-58
2024/02/15 02:45:26;;;;;;;;;41.50;34.50;;;;;11.43;100.00;99258.34;6263529;27;96931;-58
2024/02/15 02:48:29;;;;;;;;;45.00;35.00;;;;;11.43;100.00;99268.28;6263194;27;96979;-58
2024/02/15 02:51:32;;;;;;;;;39.80;33.80;;;;;11.28;100.00;99244.31;6263350;27;96252;-58
2024/02/15 02:54:35;;;;;;;;;42.40;35.80;;;;;11.45;100.00;99256.22;6263453;27;96645;-58
2024/02/15 02:57:40;;;;;;;;;40.00;32.00;;;;;11.48;100.00;99263.91;6263681;27;96479;-57
2024/02/15 03:00:43;;;;;;;;;35.00;31.00;;;;;11.51;100.00;99257.22;6263278;27;96363;-57
2024/02/15 03:03:47;;;;;;;;;38.20;32.00;;;;;11.54;100.00;99263.00;6262843;27;96378;-57
2024/02/15 03:06:51;;;;;;;;;38.50;31.00;;;;;11.59;100.00;99257.78;6244437;27;96508;-58
2024/02/15 03:09:54;;;;;;;;;35.00;31.00;;;;;11.68;100.00;99258.31;6263262;27;96433;-57
2024/02/15 03:12:59;;;;;;;;;26.60;23.00;;;;;11.79;100.00;99262.22;6262903;27;96348;-58
2024/02/15 03:16:02;;;;;;;;;26.40;22.40;;;;;11.90;100.00;99262.34;6262890;27;96901;-58
2024/02/15 03:19:05;;;;;;;;;23.80;21.40;;;;;12.00;100.00;99261.84;6285947;27;96414;-59
2024/02/15 03:22:08;;;;;;;;;20.00;18.20;;;;;12.11;100.00;99251.16;6290270;27;96494;-60
2024/02/15 03:25:11;;;;;;;;;24.75;19.75;;;;;12.23;100.00;99250.41;6290788;27;96275;-59
2024/02/15 03:28:16;;;;;;;;;26.00;22.50;;;;;12.32;100.00;99257.16;6290157;27;96279;-60
2024/02/15 03:31:19;;;;;;;;;22.60;20.40;;;;;12.38;100.00;99257.09;6290085;27;96373;-59
2024/02/15 03:34:24;;;;;;;;;21.00;17.00;;;;;12.42;100.00;99250.19;6290896;27;96915;-60
2024/02/15 03:37:27;;;;;;;;;20.00;18.00;;;;;12.46;100.00;99253.28;6272108;27;97734;-60
2024/02/15 03:40:32;;;;;;;;;15.00;14.50;;;;;12.45;100.00;99243.50;6290414;27;96526;-59
2024/02/15 03:43:36;;;;;;;;;15.00;13.00;;;;;12.57;100.00;99247.09;6289418;27;96308;-58
2024/02/15 03:46:40;;;;;;;;;17.25;15.50;;;;;12.62;100.00;99247.25;6288601;27;96329;-60
2024/02/15 03:49:43;;;;;;;;;13.00;12.80;;;;;12.69;100.00;99250.72;6284220;27;96684;-59
2024/02/15 03:52:46;;;;;;;;;13.00;12.00;;;;;12.61;100.00;99217.75;6286606;27;96357;-59
2024/02/15 03:55:53;;;;;;;;;14.00;13.00;;;;;12.83;100.00;99248.69;6287880;27;96350;-59
2024/02/15 03:58:58;;;;;;;;;14.75;11.50;;;;;12.87;100.00;99248.00;6287186;27;96899;-57
2024/02/15 04:02:03;;;;;;;;;17.00;15.00;;;;;12.93;100.00;99251.66;6268971;27;97305;-58
2024/02/15 04:05:07;;;;;;;;;17.00;14.60;;;;;12.98;100.00;99254.53;6287654;27;96805;-57
2024/02/15 04:08:10;;;;;;;;;15.40;14.00;;;;;13.03;100.00;99255.50;6269745;27;96817;-58
2024/02/15 04:11:16;;;;;;;;;14.40;13.40;;;;;13.08;100.00;99256.69;6291090;27;96257;-59
2024/02/15 04:14:20;;;;;;;;;16.00;14.40;;;;;13.11;100.00;99258.91;6272989;27;96875;-58
2024/02/15 04:17:24;;;;;;;;;15.00;13.60;;;;;13.12;100.00;99252.50;6290657;27;96404;-59
2024/02/15 04:20:27;;;;;;;;;17.75;15.75;;;;;13.14;100.00;99253.09;6290581;27;96762;-59
2024/02/15 04:23:30;;;;;;;;;13.00;12.20;;;;;13.17;100.00;99249.91;6272868;27;96341;-59
2024/02/15 04:26:33;;;;;;;;;18.00;15.00;;;;;13.17;100.00;99252.63;6270353;27;98540;-57
2024/02/15 04:29:40;;;;;;;;;20.20;18.60;;;;;13.15;100.00;99258.25;6289013;27;96304;-60
2024/02/15 04:32:43;;;;;;;;;31.00;27.00;;;;;13.07;100.00;99255.03;6297321;27;96442;-59
2024/02/15 04:35:48;;;;;;;;;30.40;26.80;;;;;12.66;100.00;99201.66;6314880;27;96368;-59
2024/02/15 04:38:53;;;;;;;;;33.20;30.20;;;;;12.90;100.00;99252.94;6295106;27;96342;-59
2024/02/15 04:41:56;;;;;;;;;37.00;32.00;;;;;12.80;100.00;99255.38;6289076;27;96351;-59
2024/02/15 04:45:01;;;;;;;;;38.60;33.00;;;;;12.72;100.00;99257.53;6289405;27;96379;-56
2024/02/15 04:48:07;;;;;;;;;39.00;33.00;;;;;12.60;100.00;99252.09;6286097;27;96809;-60
2024/02/15 04:51:11;;;;;;;;;37.60;32.60;;;;;12.55;100.00;99251.94;6288017;27;97044;-59
2024/02/15 04:54:15;;;;;;;;;36.40;31.00;;;;;12.50;100.00;99252.63;6276922;27;96434;-59
2024/02/15 04:57:19;;;;;;;;;40.50;33.50;;;;;12.39;100.00;99253.34;6288892;27;96400;-60
2024/02/15 05:00:25;;;;;;;;;38.40;32.60;;;;;12.37;100.00;99254.63;6287755;27;97116;-59
2024/02/15 05:03:29;;;;;;;;;38.80;33.00;;;;;12.33;100.00;99250.72;6281595;27;97329;-59
2024/02/15 05:06:32;;;;;;;;;44.60;36.00;;;;;12.31;100.00;99256.38;6291596;27;96395;-59
2024/02/15 05:09:36;;;;;;;;;40.00;35.00;;;;;12.32;100.00;99270.69;6292138;27;96308;-60
2024/02/15 05:12:39;;;;;;;;;36.00;32.00;;;;;12.29;100.00;99260.31;6287495;27;96592;-59
2024/02/15 05:15:45;;;;;;;;;35.40;32.40;;;;;12.30;100.00;99262.81;6284229;27;96299;-59
2024/02/15 05:18:48;;;;;;;;;35.40;32.00;;;;;12.29;100.00;99271.13;6285210;27;98342;-57
2024/02/15 05:21:51;;;;;;;;;38.60;33.00;;;;;12.30;100.00;99270.09;6291576;27;96387;-60
2024/02/15 05:24:54;;;;;;;;;37.60;32.00;;;;;12.29;100.00;99271.13;6286677;27;96412;-60
2024/02/15 05:27:58;;;;;;;;;39.50;33.50;;;;;12.27;100.00;99275.94;6292281;27;96291;-61
2024/02/15 05:31:16;;;;;;;;;38.50;33.00;;;;;12.24;100.00;99269.09;6293815;27;96379;-59
2024/02/15 05:34:19;;;;;;;;;39.00;33.00;;;;;12.24;100.00;99276.38;6282998;27;96328;-59
2024/02/15 05:37:25;;;;;;;;;39.50;32.50;;;;;12.24;100.00;99285.31;6267132;28;96378;-59
2024/02/15 05:40:29;;;;;;;;;38.60;32.00;;;;;12.24;100.00;99289.91;6239979;28;97126;-57
2024/02/15 05:43:32;;;;;;;;;38.00;32.50;;;;;12.26;100.00;99294.06;6255907;27;96422;-57
2024/02/15 05:46:40;;;;;;;;;37.60;32.60;;;;;12.24;100.00;99289.91;6261285;27;96512;-58
2024/02/15 05:49:43;;;;;;;;;37.40;33.00;;;;;12.23;100.00;99293.66;6256821;27;97022;-58
2024/02/15 05:52:46;;;;;;;;;40.00;34.00;;;;;12.26;100.00;99293.22;6257012;27;96562;-58
2024/02/15 05:55:49;;;;;;;;;44.25;35.25;;;;;12.25;100.00;99291.56;6259121;27;96754;-58
2024/02/15 05:58:52;;;;;;;;;43.50;35.00;;;;;12.10;100.00;99290.03;6253340;27;96715;-58
2024/02/15 06:01:57;;;;;;;;;47.40;38.40;;;;;11.94;100.00;99287.03;6251593;27;96386;-58
2024/02/15 06:05:03;;;;;;;;;44.20;36.00;;;;;11.91;100.00;99291.03;6250167;27;96306;-58
2024/02/15 06:08:07;;;;;;;;;45.00;36.60;;;;;11.82;100.00;99292.34;6256196;27;96854;-58
2024/02/15 06:11:10;;;;;;;;;45.60;37.60;;;;;11.88;100.00;99294.16;6261385;27;96901;-58
2024/02/15 06:14:13;;;;;;;;;48.80;38.00;;;;;11.90;100.00;99294.78;6262179;27;96698;-58
2024/02/15 06:17:18;;;;;;;;;48.80;39.00;;;;;11.90;100.00;99297.47;6262788;27;96314;-58
2024/02/15 06:20:22;;;;;;;;;48.00;38.00;;;;;11.99;100.00;99292.63;6262424;27;96444;-58
2024/02/15 06:23:26;;;;;;;;;42.75;34.75;;;;;12.03;100.00;99296.53;6260365;27;96545;-58
2024/02/15 06:26:30;;;;;;;;;47.00;36.00;;;;;12.06;100.00;99301.50;6262497;27;96382;-58
2024/02/15 06:39:41;;;;;;;;;45.00;38.00;;;;;12.30;100.00;99297.97;6256764;27;96510;-58
2024/02/15 06:42:46;;;;;;;;;47.00;36.00;;;;;12.39;100.00;99299.31;6259349;27;96326;-57
2024/02/15 06:45:51;;;;;;;;;45.00;37.20;;;;;12.54;100.00;99304.38;6262448;27;96494;-57
2024/02/15 06:48:57;;;;;;;;;48.20;38.60;;;;;12.66;100.00;99307.16;6260004;27;97657;-56
2024/02/15 06:52:02;;;;;;;;;47.00;38.00;;;;;12.75;100.00;99309.34;6262586;27;96227;-57
2024/02/15 06:55:07;;;;;;;;;47.00;38.75;;;;;12.88;100.00;99305.66;6260265;27;97185;-57
2024/02/15 06:58:12;;;;;;;;;47.80;38.00;;;;;12.97;100.00;99307.00;6260682;27;97005;-57
2024/02/15 07:01:16;;;;;;;;;45.00;37.00;;;;;13.12;100.00;99309.34;6261447;27;96624;-57
2024/02/15 07:04:21;;;;;;;;;46.80;38.80;;;;;13.25;100.00;99311.88;6262892;27;96294;-57
2024/02/15 07:07:25;;;;;;;;;43.00;36.00;;;;;13.38;100.00;99317.13;6263159;27;99125;-58
2024/02/15 07:10:28;;;;;;;;;46.00;38.00;;;;;13.48;100.00;99322.81;6262550;27;96464;-57
2024/02/15 07:13:31;;;;;;;;;45.40;36.00;;;;;13.58;100.00;99323.09;6261314;27;96754;-57
2024/02/15 07:16:35;;;;;;;;;46.60;37.60;;;;;13.66;100.00;99321.94;6261450;27;97092;-58
2024/02/15 07:19:44;;;;;;;;;43.40;36.00;;;;;13.73;100.00;99323.47;6262703;27;96504;-57
2024/02/15 07:22:47;;;;;;;;;46.60;37.60;;;;;13.81;100.00;99316.91;6262502;27;96933;-57
2024/02/15 07:25:53;;;;;;;;;41.75;35.00;;;;;13.88;100.00;99321.16;6260562;27;96643;-57
2024/02/15 07:28:57;;;;;;;;;41.00;35.00;;;;;13.95;100.00;99322.94;6260479;27;98274;-57
2024/02/15 07:32:04;;;;;;;;;43.80;35.40;;;;;14.02;100.00;99334.53;6261046;27;96867;-58
2024/02/15 07:35:09;;;;;;;;;44.40;36.00;;;;;14.07;100.00;99334.66;6261795;27;96560;-58
2024/02/15 07:38:12;;;;;;;;;46.00;37.40;;;;;14.13;100.00;99336.41;6229551;27;97482;-58
2024/02/15 07:41:16;;;;;;;;;41.60;35.00;;;;;14.19;100.00;99340.91;6257972;27;96321;-58
2024/02/15 07:44:19;;;;;;;;;43.40;35.80;;;;;14.23;100.00;99329.34;6260680;27;97121;-57
2024/02/15 07:47:24;;;;;;;;;46.00;36.00;;;;;14.33;100.00;99334.19;6259184;27;96417;-58
2024/02/15 07:50:29;;;;;;;;;44.50;36.00;;;;;14.36;100.00;99325.63;6259002;27;96913;-57
2024/02/15 07:53:32;;;;;;;;;45.40;37.00;;;;;14.47;100.00;99327.50;6258265;27;96488;-57
2024/02/15 07:56:36;;;;;;;;;50.00;39.60;;;;;14.55;100.00;99326.34;6256020;27;97729;-57
2024/02/15 07:59:39;;;;;;;;;50.33;40.00;;;;;14.57;100.00;99330.44;6259573;27;97096;-57
2024/02/15 08:02:43;;;;;;;;;48.00;39.00;;;;;14.53;100.00;99326.56;6257967;27;96322;-57
2024/02/15 08:05:48;;;;;;;;;45.60;37.00;;;;;14.63;100.00;99315.09;6258397;27;96636;-58
2024/02/15 08:08:52;;;;;;;;;49.00;39.00;;;;;14.79;100.00;99321.69;6259456;27;98191;-58
2024/02/15 08:11:56;;;;;;;;;46.00;37.00;;;;;14.92;100.00;99318.72;6259789;27;97105;-58
2024/02/15 08:14:59;;;;;;;;;46.80;37.80;;;;;15.03;100.00;99326.03;6260195;27;96608;-58
2024/02/15 08:18:05;;;;;;;;;43.25;35.00;;;;;15.08;100.00;99321.53;6261252;27;97554;-58
2024/02/15 08:21:10;;;;;;;;;45.40;37.00;;;;;15.14;100.00;99330.63;6260749;27;96880;-59
2024/02/15 08:24:13;;;;;;;;;43.50;35.00;;;;;15.16;100.00;99323.84;6259933;27;96749;-58
2024/02/15 08:27:17;;;;;;;;;41.00;35.00;;;;;15.19;100.00;99325.28;6260196;27;96317;-58
2024/02/15 08:30:20;;;;;;;;;40.50;34.50;;;;;15.24;100.00;99324.56;6260346;27;96516;-58
2024/02/15 08:33:28;;;;;;;;;39.60;33.20;;;;;15.37;100.00;99321.56;6252875;27;96535;-57
2024/02/15 08:36:33;;;;;;;;;39.75;33.00;;;;;15.54;100.00;99322.47;6261823;27;96834;-57
2024/02/15 08:39:36;;;;;;;;;45.00;35.00;;;;;15.65;100.00;99326.19;6263955;27;96328;-57
2024/02/15 08:42:41;;;;;;;;;36.00;32.00;;;;;15.73;100.00;99314.94;6245087;27;96547;-57
2024/02/15 08:45:44;;;;;;;;;39.60;33.00;;;;;15.91;100.00;99334.56;6261807;27;96309;-58
2024/02/15 08:48:47;;;;;;;;;37.00;32.00;;;;;15.99;100.00;99326.00;6263875;27;96437;-57
2024/02/15 08:51:52;;;;;;;;;31.60;29.00;;;;;16.07;100.00;99332.94;6265663;27;96853;-57
2024/02/15 08:54:57;;;;;;;;;26.40;24.20;;;;;16.18;100.00;99337.44;6265815;27;96453;-56
2024/02/15 08:58:00;;;;;;;;;32.00;29.25;;;;;16.28;100.00;99329.47;6262557;27;96613;-57
2024/02/15 09:01:04;;;;;;;;;26.80;24.00;;;;;16.38;100.00;99326.91;6261189;27;96525;-58
2024/02/15 09:04:08;;;;;;;;;26.00;23.60;;;;;16.46;100.00;99331.94;6260814;27;96847;-57
2024/02/15 09:07:12;;;;;;;;;27.40;24.00;;;;;16.48;100.00;99328.94;6262169;27;96761;-57
2024/02/15 09:10:17;;;;;;;;;26.00;23.00;;;;;16.56;100.00;99334.00;6262749;27;97683;-57
2024/02/15 09:13:20;;;;;;;;;34.20;30.40;;;;;16.53;100.00;99330.91;6261546;27;96608;-57
2024/02/15 09:16:23;;;;;;;;;41.60;35.00;;;;;16.45;100.00;99333.00;6265580;27;97097;-57
2024/02/15 09:19:26;;;;;;;;;41.75;34.00;;;;;16.44;100.00;99331.34;6265089;27;96293;-57
2024/02/15 09:22:33;;;;;;;;;50.80;40.00;;;;;16.55;100.00;99340.50;6264969;27;96683;-57
2024/02/15 09:25:39;;;;;;;;;50.60;40.80;;;;;16.63;100.00;99337.38;6265625;27;96301;-57
2024/02/15 09:28:42;;;;;;;;;51.00;41.20;;;;;16.64;100.00;99333.59;6265892;27;96365;-57
2024/02/15 09:31:46;;;;;;;;;49.00;40.00;;;;;16.81;100.00;99349.91;6265785;27;96372;-57
2024/02/15 09:34:50;;;;;;;;;52.40;41.40;;;;;16.89;100.00;99353.00;6265022;27;96459;-57
2024/02/15 09:37:56;;;;;;;;;54.60;42.60;;;;;16.99;100.00;99343.31;6247084;27;96365;-57
2024/02/15 09:40:59;;;;;;;;;52.40;42.00;;;;;17.01;100.00;99344.72;6265276;27;96351;-57
2024/02/15 09:44:03;;;;;;;;;57.20;44.20;;;;;16.93;100.00;99342.44;6265034;27;96432;-57
2024/02/15 09:47:08;;;;;;;;;53.40;42.40;;;;;16.87;100.00;99341.53;6261999;27;96345;-57
2024/02/15 09:50:13;;;;;;;;;54.75;43.00;;;;;16.86;100.00;99349.94;6262569;27;96557;-57
2024/02/15 09:53:22;;;;;;;;;53.00;43.00;;;;;16.91;100.00;99344.56;6261682;27;96875;-57
2024/02/15 09:56:28;;;;;;;;;54.00;42.60;;;;;16.93;100.00;99344.31;6262044;27;96548;-57
2024/02/15 09:59:31;;;;;;;;;51.25;40.75;;;;;17.01;100.00;99343.88;6262017;27;96595;-58
2024/02/15 10:02:36;;;;;;;;;51.60;41.80;;;;;17.17;100.00;99334.84;6261547;27;96579;-58
2024/02/15 10:05:40;;;;;;;;;51.60;40.00;;;;;17.38;100.00;99333.19;6262352;27;96498;-58
2024/02/15 10:08:46;;;;;;;;;51.60;41.00;;;;;17.57;100.00;99327.13;6262483;27;96603;-58
2024/02/15 10:11:55;;;;;;;;;47.00;39.00;;;;;17.85;100.00;99331.53;6294838;27;96889;-60
2024/02/15 10:14:59;;;;;;;;;49.00;39.00;;;;;18.05;100.00;99326.28;6295115;27;96319;-58
2024/02/15 10:18:03;;;;;;;;;48.60;38.60;;;;;18.45;100.00;99331.25;6294282;27;96658;-58
2024/02/15 10:21:07;;;;;;;;;50.00;40.00;;;;;18.90;100.00;99319.00;6295386;27;96723;-58
2024/02/15 10:24:12;;;;;;;;;47.75;38.75;;;;;19.37;100.00;99316.19;6295146;27;96409;-58
2024/02/15 10:27:24;;;;;;;;;50.00;39.00;;;;;19.90;100.00;99309.47;6295497;27;96402;-57
2024/02/15 10:30:29;;;;;;;;;49.60;39.40;;;;;20.84;100.00;99310.81;6293842;27;96363;-58
2024/02/15 10:33:34;;;;;;;;;46.60;39.00;;;;;22.67;93.57;99309.44;6294572;27;97937;-58
2024/02/15 10:36:37;;;;;;;;;39.00;33.00;;;;;25.46;76.66;99300.38;6293106;27;96346;-58
2024/02/15 10:39:41;;;;;;;;;28.40;27.00;;;;;28.43;64.31;99298.00;6292471;27;96318;-59
2024/02/15 10:42:47;;;;;;;;;22.40;21.40;;;;;30.86;55.46;99300.50;6293620;27;96423;-60
2024/02/15 10:45:52;;;;;;;;;17.50;16.50;;;;;33.90;47.22;99290.78;6291994;27;96373;-60
2024/02/15 10:48:57;;;;;;;;;12.00;10.40;;;;;36.79;37.88;99293.06;6287911;27;96745;-60
2024/02/15 10:52:04;;;;;;;;;5.75;5.75;;;;;39.51;32.70;99289.88;6286940;27;96479;-61
2024/02/15 10:55:13;;;;;;;;;5.00;4.20;;;;;40.79;30.00;99274.03;6287527;27;96374;-60
2024/02/15 10:58:20;;;;;;;;;6.00;5.00;;;;;40.81;29.49;99273.66;6286221;27;96640;-61
2024/02/15 11:01:26;;;;;;;;;4.50;4.50;;;;;39.90;29.45;99275.69;6286450;27;96279;-59
2024/02/15 11:04:36;;;;;;;;;4.00;4.00;;;;;39.44;29.74;99273.75;6284669;27;96669;-60
2024/02/15 11:07:39;;;;;;;;;6.00;5.00;;;;;41.00;28.15;99262.56;6286928;27;96307;-60
2024/02/15 11:10:47;;;;;;;;;4.00;4.00;;;;;42.60;27.22;99260.78;6285541;27;96264;-60
2024/02/15 11:13:50;;;;;;;;;4.80;4.00;;;;;43.49;25.32;99260.16;6284795;27;96395;-61
2024/02/15 11:16:54;;;;;;;;;4.00;4.00;;;;;44.46;25.61;99260.59;6284662;27;96467;-62
2024/02/15 11:19:57;;;;;;;;;4.00;4.00;;;;;45.06;23.41;99256.31;6277164;27;96282;-55
2024/02/15 11:23:01;;;;;;;;;2.00;2.00;;;;;45.58;22.79;99247.63;6261537;27;96297;-56
2024/02/15 11:26:09;;;;;;;;;3.00;3.00;;;;;45.93;22.54;99245.03;6268352;27;96304;-56
2024/02/15 11:29:48;;;;;;;;;4.00;3.00;;;;;45.80;21.79;99247.03;6271554;27;96367;-55
2024/02/15 11:32:53;;;;;;;;;3.60;3.60;;;;;45.77;22.20;99240.19;6259832;27;96405;-55
2024/02/15 11:36:05;;;;;;;;;4.50;4.00;;;;;45.72;22.48;99240.72;6270493;27;96463;-56
2024/02/15 11:39:43;;;;;;;;;4.00;4.00;;;;;46.13;21.87;99231.41;6262140;27;96330;-56
2024/02/15 11:42:49;;;;;;;;;4.75;3.00;;;;;46.23;22.24;99232.34;6251705;27;96345;-55
2024/02/15 11:45:58;;;;;;;;;4.80;4.00;;;;;46.40;21.87;99230.97;6245121;28;96920;-57
2024/02/15 11:49:03;;;;;;;;;3.80;3.80;;;;;46.14;22.14;99216.66;6260160;27;96667;-57
2024/02/15 11:52:11;;;;;;;;;4.00;4.00;;;;;45.53;22.02;99216.84;6268693;27;96282;-57
2024/02/15 11:55:15;;;;;;;;;4.00;4.00;;;;;45.06;21.96;99218.53;6270178;27;96553;-55
2024/02/15 11:58:28;;;;;;;;;4.00;4.00;;;;;44.20;22.36;99225.41;6243086;27;97639;-57
2024/02/15 12:21:42;;;;;;;;;6.00;5.00;;;;;41.82;23.77;99196.66;6248014;27;97077;-55
2024/02/15 12:24:46;;;;;;;;;6.40;6.00;;;;;39.73;24.75;99189.84;6257188;27;96479;-55
2024/02/15 12:27:54;;;;;;;;;5.00;5.00;;;;;39.31;26.76;99197.19;6267904;27;96583;-54
2024/02/15 12:30:59;;;;;;;;;4.00;4.00;;;;;39.34;27.12;99195.63;6268039;27;96481;-55
2024/02/15 12:34:06;;;;;;;;;5.00;5.00;;;;;38.29;27.31;99186.72;6267174;27;96184;-54
2024/02/15 12:37:10;;;;;;;;;6.00;5.00;;;;;38.03;27.90;99179.41;6267277;27;96345;-54
2024/02/15 12:40:15;;;;;;;;;6.00;5.00;;;;;36.85;28.40;99185.53;6261427;27;96842;-54
2024/02/15 12:43:19;;;;;;;;;6.00;6.00;;;;;35.20;30.89;99185.22;6236521;27;96310;-55
2024/02/15 12:46:23;;;;;;;;;5.50;5.50;;;;;33.94;33.18;99183.38;6259786;27;96191;-54
2024/02/15 12:49:32;;;;;;;;;5.00;5.00;;;;;32.99;34.78;99181.25;6264535;27;96274;-55
2024/02/15 12:52:37;;;;;;;;;6.00;6.00;;;;;31.89;36.53;99177.53;6263713;27;97535;-55
2024/02/15 12:55:41;;;;;;;;;3.20;3.20;;;;;30.77;38.81;99168.13;6263155;27;96431;-54
2024/02/15 12:58:44;;;;;;;;;6.00;6.00;;;;;30.05;42.04;99181.59;6278614;27;96868;-54
2024/02/15 13:01:50;;;;;;;;;7.00;6.00;;;;;29.25;44.51;99169.81;6266998;27;96386;-54
2024/02/15 13:04:58;;;;;;;;;7.00;6.00;;;;;28.37;47.00;99166.19;6266711;27;96249;-54
2024/02/15 13:08:02;;;;;;;;;10.00;8.40;;;;;28.07;48.68;99162.50;6243933;28;96434;-54
2024/02/15 13:11:05;;;;;;;;;6.50;6.50;;;;;27.66;50.99;99159.50;6242988;28;96418;-54
2024/02/15 13:14:10;;;;;;;;;6.00;5.25;;;;;27.53;52.39;99161.28;6247148;27;96996;-54
2024/02/15 13:17:14;;;;;;;;;7.00;6.00;;;;;27.51;51.52;99158.84;6268459;27;96377;-54
2024/02/15 13:20:20;;;;;;;;;8.00;7.00;;;;;27.25;52.02;99149.69;6267792;27;96415;-53
2024/02/15 13:23:25;;;;;;;;;7.00;6.00;;;;;26.96;52.59;99153.09;6272526;27;96852;-54
2024/02/15 13:26:30;;;;;;;;;7.00;6.40;;;;;26.60;53.95;99158.81;6269942;27;96644;-55
2024/02/15 13:29:33;;;;;;;;;7.00;7.00;;;;;26.38;55.09;99150.63;6265155;27;96259;-55
2024/02/15 13:32:39;;;;;;;;;8.60;7.60;;;;;26.14;55.31;99150.97;6267280;27;96824;-55
2024/02/15 13:35:42;;;;;;;;;7.60;7.60;;;;;26.03;58.36;99148.78;6271955;27;96211;-53
2024/02/15 13:38:45;;;;;;;;;6.00;5.60;;;;;26.03;57.90;99146.84;6272670;27;97158;-54
2024/02/15 13:41:48;;;;;;;;;8.80;8.20;;;;;25.76;57.90;99136.75;6237106;27;96673;-57
2024/02/15 13:44:51;;;;;;;;;6.00;5.00;;;;;25.16;59.58;99147.31;6254662;27;97028;-57
2024/02/15 13:47:57;;;;;;;;;6.40;6.00;;;;;24.59;61.49;99140.53;6257394;27;98316;-57
2024/02/15 13:51:00;;;;;;;;;9.60;8.00;;;;;24.34;63.45;99141.03;6244951;27;97005;-58
2024/02/15 13:54:04;;;;;;;;;8.40;7.00;;;;;24.16;65.22;99132.56;6250260;27;96440;-58
2024/02/15 13:57:07;;;;;;;;;6.80;5.80;;;;;24.19;64.59;99144.91;6249802;27;96326;-58
2024/02/15 14:00:21;;;;;;;;;5.60;5.60;;;;;24.18;65.55;99146.06;6248982;27;96956;-58
2024/02/15 14:03:25;;;;;;;;;9.00;7.00;;;;;24.30;64.97;99137.25;6246568;27;97326;-58
2024/02/15 14:06:29;;;;;;;;;8.00;7.00;;;;;24.40;64.13;99142.59;6250391;27;97016;-58
2024/02/15 14:09:32;;;;;;;;;8.00;8.00;;;;;24.49;63.59;99147.06;6254452;27;96778;-58
2024/02/15 14:12:35;;;;;;;;;9.00;8.00;;;;;24.39;65.37;99146.44;6250140;27;96719;-58
2024/02/15 14:15:39;;;;;;;;;7.25;7.00;;;;;24.26;65.14;99128.81;6252706;27;96717;-58
2024/02/15 14:18:44;;;;;;;;;10.00;10.00;;;;;24.40;65.65;99148.09;6262471;27;96841;-58
2024/02/15 14:21:48;;;;;;;;;9.00;8.00;;;;;24.29;66.31;99128.19;6260552;27;97633;-58
2024/02/15 14:24:51;;;;;;;;;8.40;7.00;;;;;24.06;67.35;99148.44;6241019;27;96638;-58
2024/02/15 14:27:56;;;;;;;;;7.00;7.00;;;;;23.74;69.20;99155.63;6239867;28;96264;-58
2024/02/15 14:34:21;;;;;;;;;8.00;7.00;;;;;23.06;71.60;99166.28;6252047;27;96266;-57
2024/02/15 14:37:24;;;;;;;;;10.00;8.60;;;;;22.85;73.68;99156.69;6256584;27;96449;-57
2024/02/15 14:40:28;;;;;;;;;9.00;9.00;;;;;22.50;76.57;99155.16;6253894;27;96279;-57